Tiempo atmosférico en la estación meteorológica de Estepona, Málaga (15 m.)



Fecha
DESCASC
Temp. máxima en grados centígrados (hora)
DESCASC
Temp. mínima en grados centígrados (hora)
DESCASC
Temp. media en grados centígrados
DESCASC
Racha de viento máxima en m/sg (hora)
DESCASC
Velocidad máxima media en intervalos de 10 minutos(hora)
DESCASC
Precipitaciones diarias en mm
DESCASC
Precipitaciones de 00:00 a 06:00 en mm
DESCASC
Precipitaciones de 06:00 a 12:00 en mm
DESCASC
Precipitaciones de 12:00 a 18:00 en mm
DESCASC
Precipitaciones de 18:00 a 24:00 en mm
DESCASC
20-05-2018 24 (15:00) 15.1 (02:10) 19.6 3.33 (16:40) 1.94 (16:30) 0 0 0 0 0
19-05-2018 22.3 (16:00) 15 (07:20) 18.6 6.94 (12:10) 4.72 (12:20) 0 0 0 0 0
18-05-2018 21.7 (16:40) 15.3 (00:00) 18.5 8.33 (19:20) 5.56 (19:20) 0 0 0 0 0
17-05-2018 24.3 (16:20) 14.8 (00:00) 19.5 11.39 (22:40) 6.94 (22:40) 0 0 0 0 0
16-05-2018 20.9 (12:00) 16.2 (00:00) 18.6 13.33 (19:40) 8.61 (20:00) 0 0 0 0 0
15-05-2018 23.4 (13:20) 13.5 (00:00) 18.4 7.22 (14:10) 4.72 (15:10) 0 0 0 0 0
14-05-2018 23.2 (15:50) 12.2 (00:00) 17.7 4.17 (01:50) 1.94 (12:50) 0 0 0 0 0
13-05-2018 24.1 (15:30) 14.8 (00:00) 19.5 7.5 (06:20) 3.61 (00:10) 0 0 0 0 0
12-05-2018 26.4 (16:00) 14.8 (00:00) 20.6 14.72 (14:30) 7.78 (13:10) 0 0 0 0 0
11-05-2018 24.1 (16:30) 13.7 (07:10) 18.9 4.17 (16:20) 2.5 (16:50) 0 0 0 0 0
10-05-2018 24.5 (18:00) 16.7 (00:00) 20.6 16.11 (14:50) 8.89 (15:30) 0 0 0 0 0
09-05-2018 24.2 (15:20) 16.7 (00:00) 20.5 16.94 (16:10) 9.44 (16:50) 0 0 0 0 0
08-05-2018 29.7 (15:20) 13.7 (00:00) 21.7 11.67 (13:20) 6.67 (16:40) 1.6 0 0 0.4 1.2
07-05-2018 24.5 (16:40) 15.8 (00:00) 20.2 7.22 (10:30) 5 (10:40) 0 0 0 0 0
06-05-2018 20.9 (18:30) 15.4 (00:00) 18.1 10.28 (14:50) 6.94 (14:50) 0 0 0 0 0
05-05-2018 20.4 (16:10) 12.3 (00:00) 16.3 6.94 (13:10) 4.17 (13:30) 0 0 0 0 0
04-05-2018 23.3 (12:10) 12.9 (00:00) 18.1 10.28 (17:40) 5.56 (14:50) 8.8 0 0 8.8 0
03-05-2018 22.4 (15:40) 10.9 (00:00) 16.6 8.89 (22:10) 4.44 (22:10) -- 0 0 -- 0
02-05-2018 24 (15:10) 10.8 (00:00) 17.4 10.56 (17:20) 5.83 (15:10) 0 0 0 0 0
01-05-2018 21.4 (17:50) 10.5 (06:20) 15.9 12.78 (17:00) 6.39 (17:40) 0.4 0 0 0.4 0
30-04-2018 22.1 (15:00) 10 (00:00) 16.1 11.67 (14:40) 6.39 (14:50) 0 0 0 0 0
29-04-2018 20.9 (15:30) 10.4 (00:00) 15.6 14.44 (18:00) 7.78 (16:00) 2.4 2.2 0 0.2 0
28-04-2018 22.4 (15:50) 13.8 (00:00) 18.1 16.39 (14:40) 9.72 (14:30) 0 0 0 0 0
27-04-2018 27.5 (16:50) 14.6 (00:00) 21.1 13.33 (17:30) 8.33 (17:30) 0 0 0 0 0
26-04-2018 22.1 (13:50) 14.4 (00:00) 18.3 6.94 (18:40) 3.89 (17:00) 0.4 0.4 0 0 0
25-04-2018 21.8 (16:00) 15.4 (00:00) 18.6 6.11 (09:20) 3.33 (13:30) 0 0 0 0 0
24-04-2018 23.9 (17:30) 17.3 (00:00) 20.6 6.39 (01:40) 3.61 (01:20) 0 0 0 0 0
23-04-2018 22.9 (17:00) 15 (00:00) 18.9 5.56 (00:50) 3.06 (00:40) 0.2 0.2 0 0 0
22-04-2018 22.1 (16:50) 14.2 (00:00) 18.2 6.94 (10:40) 4.17 (10:40) 0.2 0 0 0 0.2

Gráficas

Temp. máximas Temp. mínimas Temp. medias Precipitaciones Rachas de viento máximas Velocidades máximas media en intervalos de 10 minutos

Datos horarios

Fecha y hora oficial Temperatura (ºC) Velocidad del viento (km/h) Dirección del viento Racha (km/h) Dirección de racha Precipitación (mm) Presión (hPa) Tendencia (hPa) Humedad (%)
2018-05-21 23:00:00 17.4 2 Este 13 Sudoeste 0 -- -- 74
2018-05-21 22:00:00 18.1 4 Sudoeste 8 Este 0 -- -- 72
2018-05-21 21:00:00 18.8 4 Este 12 Nordeste 0 -- -- 71
2018-05-21 20:00:00 19.3 7 Este 15 Este 0 -- -- 71
2018-05-21 19:00:00 20.3 7 Este 15 Sudeste 0 -- -- 65
2018-05-21 18:00:00 23.1 4 Sudeste 12 Sudoeste 0 -- -- 53
2018-05-21 17:00:00 23.2 4 Sur 10 Sudeste 0 -- -- 55
2018-05-21 16:00:00 24.1 6 Sudoeste 12 Sudoeste 0 -- -- 53
2018-05-21 15:00:00 23.8 6 Sudoeste 11 Sudoeste 0 -- -- 55
2018-05-21 14:00:00 23.2 5 Sur 12 Sur 0 -- -- 56
2018-05-21 13:00:00 21.1 6 Sudoeste 10 Sur 0 -- -- 64
2018-05-21 12:00:00 22.1 5 Sur 10 Sur 0 -- -- 60
2018-05-21 11:00:00 18.3 4 Sudoeste 9 Sudoeste 0 -- -- 72
2018-05-21 10:00:00 17.1 3 Sudoeste 7 Sudoeste 0 -- -- 78
2018-05-21 09:00:00 16.3 3 Sur 5 Sur 0 -- -- 82
2018-05-21 08:00:00 15.7 2 Este 4 Sudeste 0 -- -- 83
2018-05-21 07:00:00 14.9 0 Calma 4 Sudoeste 0 -- -- 83
2018-05-21 06:00:00 15.2 3 Sudoeste 5 Sur 0 -- -- 82
2018-05-21 05:00:00 15 0 Calma 5 Nordeste 0 -- -- 82
2018-05-21 04:00:00 14.9 0 Calma 5 Oeste 0 -- -- 81
2018-05-21 03:00:00 15.1 0 Calma 5 Oeste 0 -- -- 79
2018-05-21 02:00:00 15.7 2 Noroeste 6 Norte 0 -- -- 79
2018-05-21 01:00:00 15.5 2 Nordeste 4 Oeste 0 -- -- 79
2018-05-21 00:00:00 15.9 2 Noroeste 6 Oeste 0 -- -- 78
2018-05-20 23:00:00 16.4 2 Oeste 6 Oeste 0 -- -- 77
2018-05-20 22:00:00 16.8 3 Nordeste 4 Nordeste 0 -- -- 76
2018-05-20 21:00:00 18.2 2 Este 7 Sur 0 -- -- 73
2018-05-20 20:00:00 19.2 3 Sudoeste 7 Sur 0 -- -- 73
2018-05-20 19:00:00 19.2 2 Este 9 Este 0 -- -- 68
2018-05-20 18:00:00 19.8 6 Este 10 Este 0 -- -- 66
2018-05-20 17:00:00 21.1 5 Este 12 Este 0 -- -- 62
2018-05-20 16:00:00 21.1 5 Sudeste 12 Sur 0 -- -- 61
2018-05-20 15:00:00 23.9 5 Sur 11 Sur 0 -- -- 54
2018-05-20 14:00:00 21.9 5 Sudeste 11 Sudeste 0 -- -- 61
2018-05-20 13:00:00 21.5 5 Sudeste 12 Sur 0 -- -- 62
2018-05-20 12:00:00 21.4 5 Sur 9 Sur 0 -- -- 56
2018-05-20 11:00:00 18.6 3 Sur 6 Sudoeste 0 -- -- 69
2018-05-20 10:00:00 16.5 3 Sudoeste 5 Sudoeste 0 -- -- 78
2018-05-20 09:00:00 15.3 0 Calma 4 Nordeste 0 -- -- 80
2018-05-20 08:00:00 15.3 0 Calma 6 Oeste 0 -- -- 79
2018-05-20 07:00:00 15.7 3 Sudoeste 4 Sudoeste 0 -- -- 77
2018-05-20 06:00:00 15.9 2 Noroeste 6 Oeste 0 -- -- 73
2018-05-20 05:00:00 16.1 4 Sudoeste 8 Sudoeste 0 -- -- 76
2018-05-20 04:00:00 16 3 Oeste 8 Oeste 0 -- -- 78
2018-05-20 03:00:00 15.5 3 Noroeste 8 Oeste 0 -- -- 78
2018-05-20 02:00:00 15.3 3 Sudoeste 6 Oeste 0 -- -- 77
2018-05-20 01:00:00 16.1 5 Sudoeste 10 Sur 0 -- -- 75
2018-05-20 00:00:00 16.7 2 Este 7 Nordeste 0 -- -- 67
2018-05-19 23:00:00 17 4 Sudoeste 7 Sudoeste 0 -- -- 70
2018-05-19 22:00:00 17.4 4 Nordeste 13 Nordeste 0 -- -- 63
2018-05-19 21:00:00 18.6 9 Este 19 Este 0 -- -- 68
2018-05-19 20:00:00 20.2 10 Este 18 Este 0 -- -- 64
2018-05-19 19:00:00 21.2 8 Este 15 Este 0 -- -- 63
2018-05-19 18:00:00 21.5 6 Este 15 Este 0 -- -- 64
2018-05-19 17:00:00 21.6 8 Este 14 Este 0 -- -- 61
2018-05-19 16:00:00 22.3 7 Este 14 Este 0 -- -- 60
2018-05-19 15:00:00 21.5 9 Este 17 Este 0 -- -- 64
2018-05-19 14:00:00 21.5 11 Este 23 Este 0 -- -- 65
2018-05-19 13:00:00 19.7 12 Este 25 Este 0 -- -- 71
2018-05-19 12:00:00 20.2 12 Este 23 Este 0 -- -- 69
2018-05-19 11:00:00 20 14 Este 22 Este 0 -- -- 68
2018-05-19 10:00:00 18.9 13 Nordeste 19 Nordeste 0 -- -- 66
2018-05-19 09:00:00 17.5 10 Este 15 Este 0 -- -- 63
2018-05-19 08:00:00 15.6 5 Nordeste 11 Este 0 -- -- 69
2018-05-19 07:00:00 15.4 6 Nordeste 15 Este 0 -- -- 64
2018-05-19 06:00:00 15.2 5 Nordeste 14 Nordeste 0 -- -- 64
2018-05-19 05:00:00 15.4 9 Nordeste 17 Nordeste 0 -- -- 61
2018-05-19 04:00:00 15.6 6 Nordeste 14 Nordeste 0 -- -- 67
2018-05-19 03:00:00 15.9 6 Nordeste 14 Nordeste 0 -- -- 70
2018-05-19 02:00:00 16.1 6 Nordeste 15 Nordeste 0 -- -- 67
2018-05-19 01:00:00 16.3 7 Nordeste 16 Nordeste 0 -- -- 68
2018-05-19 00:00:00 16.5 7 Nordeste 14 Nordeste 0 -- -- 69
2018-05-18 23:00:00 17 8 Nordeste 18 Este 0 -- -- 68
2018-05-18 22:00:00 17.3 8 Nordeste 25 Nordeste 0 -- -- 66
2018-05-18 21:00:00 18 16 Este 27 Este 0 -- -- 69
2018-05-18 20:00:00 19.7 15 Este 30 Este 0 -- -- 60
2018-05-18 19:00:00 20.7 18 Este 28 Este 0 -- -- 57
2018-05-18 18:00:00 21 16 Este 27 Este 0 -- -- 59
2018-05-18 17:00:00 21.2 17 Este 27 Este 0 -- -- 58
2018-05-18 16:00:00 21 16 Este 23 Este 0 -- -- 62
2018-05-18 15:00:00 21.1 13 Este 23 Este 0 -- -- 63
2018-05-18 14:00:00 21.1 16 Este 27 Este 0 -- -- 60
2018-05-18 13:00:00 20.1 15 Este 27 Este 0 -- -- 62
2018-05-18 12:00:00 20.3 17 Este 27 Este 0 -- -- 60
2018-05-18 11:00:00 20.2 17 Este 27 Este 0 -- -- 57
2018-05-18 10:00:00 19.1 17 Este 25 Este 0 -- -- 58
2018-05-18 09:00:00 18.4 9 Nordeste 23 Nordeste 0 -- -- 56
2018-05-18 08:00:00 16.8 9 Nordeste 19 Nordeste 0 -- -- 60
2018-05-18 07:00:00 16 9 Nordeste 19 Nordeste 0 -- -- 65
2018-05-18 06:00:00 15.5 9 Nordeste 21 Nordeste 0 -- -- 73
2018-05-18 05:00:00 16.2 6 Nordeste 17 Este 0 -- -- 79
2018-05-18 04:00:00 16.7 10 Este 25 Este 0 -- -- 77
2018-05-18 03:00:00 17.4 14 Este 21 Este 0 -- -- 73
2018-05-18 02:00:00 17.9 10 Este 17 Este 0 -- -- 64
2018-05-18 01:00:00 17 6 Nordeste 18 Este 0 -- -- 64
2018-05-18 00:00:00 16.9 9 Nordeste 22 Este 0 -- -- 66
2018-05-17 23:00:00 17.3 10 Nordeste 41 Este 0 -- -- 72
2018-05-17 22:00:00 17.5 8 Nordeste 26 Este 0 -- -- 74
2018-05-17 21:00:00 18.1 13 Este 19 Este 0 -- -- 67
2018-05-17 20:00:00 18.7 13 Este 23 Este 0 -- -- 68
2018-05-17 19:00:00 19.2 13 Este 22 Este 0 -- -- 66
2018-05-17 18:00:00 20.4 6 Este 10 Este 0 -- -- 60
2018-05-17 17:00:00 24 7 Sudoeste 15 Sudoeste 0 -- -- 49
2018-05-17 16:00:00 23.9 6 Sudoeste 12 Sudoeste 0 -- -- 49
2018-05-17 15:00:00 23.6 8 Sudoeste 14 Sudoeste 0 -- -- 52
2018-05-17 14:00:00 22.4 7 Sudoeste 17 Sudoeste 0 -- -- 54
2018-05-17 13:00:00 22.3 12 Sudoeste 17 Sudoeste 0 -- -- 52
2018-05-17 12:00:00 22.3 7 Sudoeste 13 Sudoeste 0 -- -- 51
2018-05-17 11:00:00 20.7 4 Sudoeste 7 Sur 0 -- -- 55
2018-05-17 10:00:00 19.4 4 Este 8 Nordeste 0 -- -- 61
2018-05-17 09:00:00 17.1 0 Calma 5 Sur 0 -- -- 67
2018-05-17 08:00:00 15.4 3 Noroeste 8 Noroeste 0 -- -- 66
2018-05-17 07:00:00 15 4 Sudoeste 7 Sudoeste 0 -- -- 64
2018-05-17 06:00:00 15.7 3 Norte 8 Nordeste 0 -- -- 56
2018-05-17 05:00:00 16.3 5 Nordeste 13 Nordeste 0 -- -- 57
2018-05-17 04:00:00 16.8 4 Nordeste 14 Nordeste 0 -- -- 58
2018-05-17 03:00:00 17.6 6 Nordeste 24 Nordeste 0 -- -- 52
2018-05-17 02:00:00 17.5 9 Nordeste 23 Nordeste 0 -- -- 51
2018-05-17 01:00:00 17.2 9 Nordeste 27 Nordeste 0 -- -- 51
2018-05-17 00:00:00 17.1 8 Nordeste 22 Este 0 -- -- 51
2018-05-16 23:00:00 16.9 8 Nordeste 20 Este 0 -- -- 55
2018-05-16 22:00:00 17.5 13 Nordeste 37 Este 0 -- -- 63
2018-05-16 21:00:00 18.3 26 Este 46 Este 0 -- -- 56
2018-05-16 20:00:00 19.5 31 Este 48 Este 0 -- -- 51
2018-05-16 19:00:00 20.2 26 Este 41 Nordeste 0 -- -- 53
2018-05-16 18:00:00 20.5 23 Este 36 Este 0 -- -- 56
2018-05-16 17:00:00 20.7 20 Este 33 Este 0 -- -- 58
2018-05-16 16:00:00 20.8 22 Este 36 Este 0 -- -- 53
2018-05-16 15:00:00 20.5 24 Este 40 Este 0 -- -- 49
2018-05-16 14:00:00 20.5 23 Este 40 Este 0 -- -- 46
2018-05-16 13:00:00 20.7 26 Este 39 Este 0 -- -- 45
2018-05-16 12:00:00 20.9 22 Este 32 Este 0 -- -- 51
2018-05-16 11:00:00 20.2 21 Este 40 Este 0 -- -- 50
2018-05-16 10:00:00 19.4 23 Nordeste 36 Nordeste 0 -- -- 43
2018-05-16 09:00:00 18.4 13 Nordeste 24 Nordeste 0 -- -- 37
2018-05-16 08:00:00 16.8 12 Nordeste 26 Nordeste 0 -- -- 39
2018-05-16 07:00:00 16.3 12 Nordeste 24 Nordeste 0 -- -- 40
2018-05-16 06:00:00 16.3 9 Nordeste 23 Nordeste 0 -- -- 42
2018-05-16 05:00:00 16.8 12 Nordeste 26 Nordeste 0 -- -- 40
2018-05-16 04:00:00 16.5 11 Nordeste 22 Nordeste 0 -- -- 45
2018-05-16 03:00:00 16.5 11 Nordeste 22 Nordeste 0 -- -- 51
2018-05-16 02:00:00 16.5 10 Nordeste 20 Nordeste 0 -- -- 47
2018-05-16 01:00:00 16.4 8 Nordeste 19 Este 0 -- -- 43
2018-05-16 00:00:00 16.6 8 Nordeste 15 Nordeste 0 -- -- 41
2018-05-15 23:00:00 16.8 6 Nordeste 14 Nordeste 0 -- -- 41
2018-05-15 22:00:00 17 6 Nordeste 14 Este 0 -- -- 45
2018-05-15 21:00:00 18.1 9 Este 19 Este 0 -- -- 50
2018-05-15 20:00:00 20.2 14 Este 24 Este 0 -- -- 48
2018-05-15 19:00:00 21.1 15 Este 24 Nordeste 0 -- -- 44
2018-05-15 18:00:00 21.3 15 Este 24 Este 0 -- -- 51
2018-05-15 17:00:00 21.5 15 Este 22 Este 0 -- -- 54
2018-05-15 16:00:00 22.3 15 Este 25 Este 0 -- -- 49
2018-05-15 15:00:00 22.5 17 Nordeste 26 Este 0 -- -- 38
2018-05-15 14:00:00 22 15 Este 24 Este 0 -- -- 40
2018-05-15 13:00:00 22.7 13 Este 21 Este 0 -- -- 38
2018-05-15 12:00:00 21.8 13 Este 19 Este 0 -- -- 34
2018-05-15 11:00:00 21.3 13 Este 20 Este 0 -- -- 33
2018-05-15 10:00:00 18.8 7 Nordeste 14 Este 0 -- -- 41
2018-05-15 09:00:00 15.7 2 Sudoeste 9 Oeste 0 -- -- 58
2018-05-15 08:00:00 14.2 4 Sudoeste 12 Nordeste 0 -- -- 56
2018-05-15 07:00:00 14.9 5 Nordeste 14 Nordeste 0 -- -- 43
2018-05-15 06:00:00 15.2 8 Nordeste 15 Nordeste 0 -- -- 40
2018-05-15 05:00:00 14.1 6 Nordeste 12 Nordeste 0 -- -- 46
2018-05-15 04:00:00 14.5 6 Nordeste 13 Nordeste 0 -- -- 47
2018-05-15 03:00:00 14.3 5 Nordeste 12 Nordeste 0 -- -- 56
2018-05-15 02:00:00 14.3 5 Nordeste 9 Nordeste 0 -- -- 60
2018-05-15 01:00:00 13.9 3 Nordeste 5 Nordeste 0 -- -- 62
2018-05-15 00:00:00 14.6 0 Calma 4 Nordeste 0 -- -- 61
2018-05-14 23:00:00 15.1 3 Este 4 Sudeste 0 -- -- 66
2018-05-14 22:00:00 16 3 Este 4 Este 0 -- -- 53
2018-05-14 21:00:00 18.2 2 Sudoeste 7 Sudoeste 0 -- -- 50
2018-05-14 20:00:00 21.1 3 Sudoeste 8 Sudeste 0 -- -- 47
2018-05-14 19:00:00 21.4 3 Sur 11 Sudeste 0 -- -- 47
2018-05-14 18:00:00 21.3 5 Sur 10 Sur 0 -- -- 47
2018-05-14 17:00:00 22.4 5 Sur 10 Sur 0 -- -- 48
2018-05-14 16:00:00 22.5 6 Sur 12 Sur 0 -- -- 48
2018-05-14 15:00:00 22.2 6 Sur 13 Sudeste 0 -- -- 50
2018-05-14 14:00:00 21.1 6 Sudeste 13 Sudeste 0 -- -- 52
2018-05-14 13:00:00 21.1 5 Sudeste 13 Sudeste 0 -- -- 52
2018-05-14 12:00:00 20.3 5 Sudeste 12 Sur 0 -- -- 49
2018-05-14 11:00:00 19.5 4 Sudeste 8 Sudeste 0 -- -- 49
2018-05-14 10:00:00 17.1 3 Sur 6 Sur 0 -- -- 50
2018-05-14 09:00:00 14.7 2 Sur 4 Sur 0 -- -- 59
2018-05-14 08:00:00 12.7 2 Oeste 5 Noroeste 0 -- -- 57
2018-05-14 07:00:00 12.9 2 Oeste 7 Noroeste 0 -- -- 54
2018-05-14 06:00:00 13.1 3 Noroeste 6 Oeste 0 -- -- 55
2018-05-14 05:00:00 13.5 2 Noroeste 6 Noroeste 0 -- -- 54
2018-05-14 04:00:00 13.6 3 Norte 7 Nordeste 0 -- -- 56
2018-05-14 03:00:00 13.9 2 Noroeste 8 Oeste 0 -- -- 62
2018-05-14 02:00:00 14.7 3 Norte 15 Este 0 -- -- 65
2018-05-14 01:00:00 16.1 5 Oeste 11 Sudoeste 0 -- -- 52
2018-05-11 20:00:00 21.4 3 Sudoeste 7 Oeste 0 -- -- 55
2018-05-11 19:00:00 22.3 4 Sudoeste 9 Sudoeste 0 -- -- 54
2018-05-11 18:00:00 23.6 6 Sudoeste 12 Sudoeste 0 -- -- 52
2018-05-11 17:00:00 24 9 Sudoeste 15 Sudoeste 0 -- -- 50
2018-05-11 16:00:00 23.8 8 Sudoeste 14 Sudoeste 0 -- -- 51
2018-05-11 15:00:00 23 6 Sudoeste 12 Sur 0 -- -- 55
2018-05-11 14:00:00 22.5 7 Sudoeste 13 Sudoeste 0 -- -- 57
2018-05-11 13:00:00 21.3 6 Sudoeste 12 Sudoeste 0 -- -- 60
2018-05-11 12:00:00 20.2 6 Sudoeste 11 Sudoeste 0 -- -- 62
2018-05-11 11:00:00 19 6 Sudeste 10 Sudeste 0 -- -- 72
2018-05-11 10:00:00 17.5 5 Sur 10 Sur 0 -- -- 77
2018-05-11 09:00:00 16.3 5 Este 10 Este 0 -- -- 79
2018-05-11 08:00:00 14.5 2 Noroeste 5 Nordeste 0 -- -- 83
2018-05-11 07:00:00 13.8 2 Este 5 Nordeste 0 -- -- 82
2018-05-11 06:00:00 14 3 Oeste 6 Oeste 0 -- -- 80
2018-05-11 05:00:00 14.7 0 Calma 6 Nordeste 0 -- -- 78
2018-05-11 04:00:00 15.5 3 Nordeste 15 Oeste 0 -- -- 74
2018-05-11 03:00:00 15.6 5 Sudoeste 15 Oeste 0 -- -- 74
2018-05-11 02:00:00 15.8 3 Norte 8 Nordeste 0 -- -- 76
2018-05-11 01:00:00 16.7 0 Calma 6 Norte 0 -- -- 72
2018-05-11 00:00:00 17.4 2 Oeste 5 Oeste 0 -- -- 68
2018-05-10 23:00:00 18.5 0 Calma 23 Oeste 0 -- -- 61
2018-05-10 22:00:00 19.4 15 Oeste 36 Oeste 0 -- -- 57
2018-05-10 21:00:00 20.4 22 Oeste 45 Sudoeste 0 -- -- 53
2018-05-10 20:00:00 22.6 25 Oeste 43 Oeste 0 -- -- 46
2018-05-10 19:00:00 23.4 21 Oeste 42 Sudoeste 0 -- -- 46
2018-05-10 18:00:00 24.3 26 Oeste 53 Oeste 0 -- -- 42
2018-05-10 17:00:00 24 28 Sudoeste 50 Sudoeste 0 -- -- 44
2018-05-10 16:00:00 23.4 29 Oeste 55 Sudoeste 0 -- -- 46
2018-05-10 15:00:00 22.2 27 Oeste 58 Oeste 0 -- -- 51
2018-05-10 14:00:00 21.9 29 Oeste 55 Oeste 0 -- -- 53
2018-05-10 13:00:00 20.3 30 Oeste 51 Sudoeste 0 -- -- 61
2018-05-10 12:00:00 18.9 28 Oeste 47 Sudoeste 0 -- -- 66
2018-05-10 11:00:00 18.4 27 Oeste 51 Oeste 0 -- -- 67
2018-05-10 10:00:00 18.1 22 Oeste 48 Sudoeste 0 -- -- 66
2018-05-10 09:00:00 17.6 28 Oeste 47 Sudoeste 0 -- -- 69
2018-05-10 08:00:00 17.5 19 Oeste 46 Oeste 0 -- -- 65
2018-05-10 07:00:00 17.6 23 Oeste 53 Oeste 0 -- -- 61
2018-05-10 06:00:00 17.4 22 Oeste 57 Oeste 0 -- -- 61
2018-05-10 05:00:00 16.8 20 Oeste 49 Oeste 0 -- -- 64
2018-05-10 04:00:00 17.1 24 Oeste 52 Oeste 0 -- -- 61
2018-05-10 03:00:00 16.8 23 Oeste 46 Oeste 0 -- -- 63
2018-05-10 02:00:00 16.7 25 Sudoeste 48 Sudoeste 0 -- -- 64
2018-05-10 01:00:00 17.1 25 Oeste 54 Oeste 0 -- -- 63
2018-05-10 00:00:00 17.7 23 Oeste 53 Oeste 0 -- -- 60
2018-05-09 23:00:00 17.7 24 Oeste 48 Oeste 0 -- -- 63
2018-05-09 22:00:00 18.8 24 Oeste 45 Sudoeste 0 -- -- 60
2018-05-09 21:00:00 19.7 27 Oeste 54 Oeste 0 -- -- 58
2018-05-09 20:00:00 21.3 25 Oeste 54 Sudoeste 0 -- -- 55
2018-05-09 19:00:00 22.7 26 Oeste 57 Oeste 0 -- -- 52
2018-05-09 18:00:00 23 28 Oeste 59 Oeste 0 -- -- 52
2018-05-09 17:00:00 23.7 24 Oeste 61 Oeste 0 -- -- 52
2018-05-09 16:00:00 23.7 32 Oeste 60 Oeste 0 -- -- 50
2018-05-09 15:00:00 24 28 Oeste 59 Oeste 0 -- -- 50
2018-05-09 14:00:00 23.1 29 Oeste 53 Sudoeste 0 -- -- 52
2018-05-09 13:00:00 22.5 28 Oeste 58 Sudoeste 0 -- -- 55
2018-05-09 12:00:00 21.5 27 Oeste 51 Oeste 0 -- -- 57
2018-05-09 11:00:00 20.6 24 Oeste 57 Oeste 0 -- -- 58
2018-05-09 10:00:00 19.7 23 Oeste 59 Oeste 0 -- -- 61
2018-05-09 09:00:00 18.7 19 Oeste 45 Oeste 0 -- -- 65
2018-05-09 08:00:00 17.6 22 Oeste 50 Oeste 0 -- -- 68
2018-05-09 07:00:00 17.4 17 Oeste 33 Oeste 0 -- -- 69
2018-05-09 06:00:00 17 6 Oeste 19 Noroeste 0 -- -- 72
2018-05-09 05:00:00 16.9 9 Oeste 19 Oeste 0 -- -- 73
2018-05-09 04:00:00 16.7 5 Oeste 9 Oeste 0 -- -- 76
2018-05-09 03:00:00 17.5 0 Calma 14 Oeste 0 -- -- 72
2018-05-09 02:00:00 18.1 5 Oeste 13 Sudoeste 0 -- -- 69
2018-05-09 01:00:00 19.1 3 Oeste 12 Oeste 0 -- -- 68
2018-05-09 00:00:00 19.4 4 Oeste 14 Nordeste 0 -- -- 68
2018-05-08 23:00:00 20.3 2 Este 11 Oeste 0 -- -- 63
2018-05-08 22:00:00 22.3 3 Nordeste 24 Oeste 0 -- -- 59
2018-05-08 21:00:00 23.1 13 Oeste 33 Oeste 0 -- -- 53
2018-05-08 20:00:00 25.1 19 Oeste 42 Oeste 0 -- -- 49
2018-05-08 19:00:00 24.1 16 Oeste 31 Oeste 1.2 -- -- 57
2018-05-08 18:00:00 24.6 9 Noroeste 41 Oeste 0.4 -- -- 58
2018-05-08 17:00:00 26.9 22 Oeste 42 Oeste 0 -- -- 42
2018-05-08 16:00:00 26.5 19 Oeste 36 Oeste 0 -- -- 42
2018-05-08 15:00:00 28.6 15 Oeste 35 Oeste 0 -- -- 32
2018-05-08 14:00:00 28 12 Oeste 42 Oeste 0 -- -- 35
2018-05-08 13:00:00 23.3 9 Oeste 36 Oeste 0 -- -- 51
2018-05-08 12:00:00 19.9 9 Este 19 Este 0 -- -- 59
2018-05-08 11:00:00 18.9 5 Sudeste 10 Sudeste 0 -- -- 67
2018-05-08 10:00:00 16.9 5 Sudoeste 10 Sudoeste 0 -- -- 75
2018-05-08 09:00:00 15.7 2 Este 6 Nordeste 0 -- -- 77
2018-05-08 08:00:00 13.9 0 Calma 4 Nordeste 0 -- -- 79
2018-05-08 07:00:00 13.9 2 Noroeste 6 Este 0 -- -- 78
2018-05-08 06:00:00 14 2 Oeste 7 Oeste 0 -- -- 77
2018-05-08 05:00:00 14.2 3 Oeste 6 Oeste 0 -- -- 77
2018-05-08 04:00:00 14.8 2 Norte 12 Nordeste 0 -- -- 74
2018-05-08 03:00:00 15.1 4 Nordeste 9 Este 0 -- -- 76
2018-05-08 02:00:00 15 5 Nordeste 9 Nordeste 0 -- -- 75
2018-05-08 01:00:00 15.6 6 Nordeste 10 Sudoeste 0 -- -- 73
2018-05-08 00:00:00 15.8 3 Sudoeste 9 Sudoeste 0 -- -- 70
2018-05-07 23:00:00 16.5 5 Sudoeste 11 Oeste 0 -- -- 68
2018-05-07 22:00:00 17.4 6 Sudoeste 13 Oeste 0 -- -- 69
2018-05-07 21:00:00 18.7 4 Nordeste 10 Este 0 -- -- 65
2018-05-07 20:00:00 21 5 Este 9 Este 0 -- -- 53
2018-05-07 19:00:00 22.7 5 Sudoeste 11 Sudoeste 0 -- -- 45
2018-05-07 18:00:00 23.2 4 Sudoeste 13 Oeste 0 -- -- 45
2018-05-07 17:00:00 24.4 8 Sudoeste 11 Sudoeste 0 -- -- 46
2018-05-07 16:00:00 23.9 6 Sudoeste 13 Sudoeste 0 -- -- 47
2018-05-07 15:00:00 23.7 6 Sudoeste 12 Sur 0 -- -- 50
2018-05-07 14:00:00 22.1 8 Sudeste 19 Este 0 -- -- 54
2018-05-07 13:00:00 21 15 Este 26 Este 0 -- -- 56
2018-05-07 12:00:00 18.8 14 Este 25 Este 0 -- -- 68
2018-05-07 11:00:00 18.8 14 Este 26 Este 0 -- -- 65
2018-05-07 10:00:00 19.2 12 Nordeste 22 Nordeste 0 -- -- 65
2018-05-07 09:00:00 17.2 12 Este 20 Este 0 -- -- 72
2018-05-07 08:00:00 16.6 8 Nordeste 15 Este 0 -- -- 73
2018-05-07 07:00:00 16.2 6 Nordeste 12 Nordeste 0 -- -- 70
2018-05-07 06:00:00 16.5 6 Nordeste 17 Nordeste 0 -- -- 68
2018-05-07 05:00:00 16.9 7 Nordeste 18 Este 0 -- -- 65
2018-05-07 04:00:00 17 8 Nordeste 24 Norte 0 -- -- 58
2018-05-07 03:00:00 17.1 11 Nordeste 25 Nordeste 0 -- -- 57
2018-05-07 02:00:00 17.1 9 Nordeste 23 Nordeste 0 -- -- 58
2018-05-07 01:00:00 17.2 10 Nordeste 23 Nordeste 0 -- -- 60
2018-05-07 00:00:00 17 9 Nordeste 27 Nordeste 0 -- -- 61
2018-05-06 23:00:00 17 10 Nordeste 25 Este 0 -- -- 66
2018-05-06 22:00:00 17 10 Nordeste 31 Este 0 -- -- 70
2018-05-06 21:00:00 17.3 10 Nordeste 24 Este 0 -- -- 71
2018-05-06 20:00:00 18.4 17 Este 25 Este 0 -- -- 68
2018-05-06 19:00:00 20.1 12 Nordeste 28 Nordeste 0 -- -- 61
2018-05-06 18:00:00 20.4 14 Nordeste 26 Este 0 -- -- 61
2018-05-06 17:00:00 19.8 17 Este 35 Este 0 -- -- 59
2018-05-06 16:00:00 19.8 23 Este 36 Este 0 -- -- 55
2018-05-06 15:00:00 20.2 24 Este 37 Este 0 -- -- 55
2018-05-06 14:00:00 20 23 Este 35 Este 0 -- -- 57
2018-05-06 13:00:00 20.1 23 Este 35 Este 0 -- -- 57
2018-05-06 12:00:00 19.8 22 Este 32 Este 0 -- -- 58
2018-05-06 11:00:00 19.3 20 Este 36 Este 0 -- -- 58
2018-05-06 10:00:00 18.3 19 Este 34 Nordeste 0 -- -- 61
2018-05-06 09:00:00 17 11 Nordeste 25 Nordeste 0 -- -- 55
2018-05-06 08:00:00 15.7 12 Nordeste 26 Nordeste 0 -- -- 62
2018-05-06 07:00:00 15.4 12 Nordeste 24 Nordeste 0 -- -- 61
2018-05-06 06:00:00 15.6 8 Nordeste 23 Nordeste 0 -- -- 55
2018-05-06 05:00:00 16 10 Nordeste 19 Nordeste 0 -- -- 52
2018-05-06 04:00:00 15.7 9 Nordeste 17 Este 0 -- -- 56
2018-05-06 03:00:00 15.8 8 Nordeste 16 Nordeste 0 -- -- 57
2018-05-06 02:00:00 16.2 8 Nordeste 17 Nordeste 0 -- -- 55
2018-05-06 01:00:00 16.5 9 Nordeste 17 Nordeste 0 -- -- 54
2018-05-06 00:00:00 16.5 9 Nordeste 18 Nordeste 0 -- -- 56
2018-05-05 23:00:00 16.2 8 Nordeste 17 Nordeste 0 -- -- 60
2018-05-05 22:00:00 16.1 8 Nordeste 18 Este 0 -- -- 74
2018-05-05 21:00:00 17 10 Este 20 Este 0 -- -- 74
2018-05-05 20:00:00 19 7 Sudeste 20 Este 0 -- -- 69
2018-05-05 19:00:00 19.1 10 Este 21 Este 0 -- -- 69
2018-05-05 18:00:00 19.7 13 Este 21 Este 0 -- -- 65
2018-05-05 17:00:00 20.1 13 Este 20 Este 0 -- -- 63
2018-05-05 16:00:00 20 12 Este 22 Este 0 -- -- 64
2018-05-05 15:00:00 19.9 13 Este 23 Este 0 -- -- 64
2018-05-05 14:00:00 19.9 15 Este 25 Este 0 -- -- 64
2018-05-05 13:00:00 20.1 15 Este 22 Este 0 -- -- 63
2018-05-05 12:00:00 19.6 11 Este 20 Este 0 -- -- 60
2018-05-05 11:00:00 18.1 4 Sudeste 8 Sudeste 0 -- -- 65
2018-05-05 10:00:00 15.7 3 Sudeste 6 Sudeste 0 -- -- 81
2018-05-05 09:00:00 14.2 2 Sudeste 4 Sudeste 0 -- -- 85
2018-05-05 08:00:00 12.8 0 Calma 6 Noroeste 0 -- -- 84
2018-05-05 07:00:00 13.1 5 Oeste 8 Noroeste 0 -- -- 84
2018-05-05 06:00:00 12.7 2 Sur 5 Nordeste 0 -- -- 82
2018-05-05 05:00:00 13.5 2 Norte 12 Nordeste 0 -- -- 81
2018-05-05 04:00:00 14.4 8 Nordeste 17 Nordeste 0 -- -- 80
2018-05-05 03:00:00 13.6 7 Nordeste 20 Este 0 -- -- 79
2018-05-05 02:00:00 12.6 5 Nordeste 10 Nordeste 0 -- -- 81
2018-05-05 01:00:00 12.7 3 Nordeste 8 Oeste 0 -- -- 80
2018-05-05 00:00:00 13 4 Sudoeste 6 Oeste 0 -- -- 81
2018-05-04 23:00:00 13.8 2 Oeste 6 Nordeste 0 -- -- 79
2018-05-04 22:00:00 14.3 2 Sudoeste 8 Sudoeste 0 -- -- 76
2018-05-04 21:00:00 15.8 5 Sudoeste 24 Sudoeste 0 -- -- 71
2018-05-04 20:00:00 18.2 5 Sudoeste 27 Sudeste 0 -- -- 60
2018-05-04 19:00:00 17.6 7 Este 34 Oeste 0 -- -- 64
2018-05-04 18:00:00 15.6 16 Oeste 37 Noroeste 1.8 -- -- 67
2018-05-04 17:00:00 15.3 12 Oeste 27 Oeste 5.4 -- -- 77
2018-05-04 16:00:00 17 4 Norte 31 Nordeste 1.6 -- -- 74
2018-05-04 15:00:00 18.6 16 Nordeste 33 Este 0 -- -- 68
2018-05-04 14:00:00 20.5 8 Este 25 Este 0 -- -- 61
2018-05-04 13:00:00 21 6 Este 22 Este 0 -- -- 55
2018-05-04 12:00:00 23 6 Oeste 23 Sudoeste 0 -- -- 52
2018-05-04 11:00:00 19.4 8 Nordeste 19 Este 0 -- -- 59
2018-05-04 10:00:00 17.8 4 Este 18 Oeste 0 -- -- 60
2018-05-04 09:00:00 15.7 0 Calma 6 Oeste 0 -- -- 68
2018-05-04 08:00:00 13.6 4 Noroeste 6 Nordeste 0 -- -- 72
2018-05-04 07:00:00 13.3 3 Nordeste 5 Oeste 0 -- -- 71
2018-05-04 06:00:00 13.6 2 Oeste 8 Norte 0 -- -- 70
2018-05-04 05:00:00 13.9 3 Norte 8 Este 0 -- -- 69
2018-05-04 04:00:00 14.8 2 Sur 8 Norte 0 -- -- 67
2018-05-04 03:00:00 15.1 0 Calma 9 Nordeste 0 -- -- 65
2018-05-04 02:00:00 15.7 3 Noroeste 6 Norte 0 -- -- 62
2018-05-04 01:00:00 16.2 2 Norte 5 Este 0 -- -- 62
2018-05-04 00:00:00 17.3 4 Nordeste 17 Oeste 0 -- -- 57
2018-05-03 23:00:00 18.4 9 Oeste 32 Oeste 0 -- -- 54
2018-05-03 22:00:00 16.5 7 Oeste 19 Oeste 0 -- -- 65
2018-05-03 21:00:00 17.7 2 Noroeste 10 Sudoeste 0 -- -- 61
2018-05-03 20:00:00 19.7 5 Nordeste 13 Este 0 -- -- 63
2018-05-03 19:00:00 19.3 8 Nordeste 16 Este 0 -- -- 65
2018-05-03 18:00:00 20.2 10 Este 16 Este 0 -- -- 59
2018-05-03 17:00:00 21.5 5 Sudeste 17 Oeste 0 -- -- 53
2018-05-03 16:00:00 22.1 6 Sudoeste 19 Oeste 0 -- -- 50
2018-05-03 15:00:00 21.7 -- -- -- -- -- -- -- 51
2018-05-03 14:00:00 21 11 Sudoeste 24 Sur 0 -- -- 54
2018-05-03 13:00:00 20.7 9 Sudoeste 19 Sur 0 -- -- 53
2018-05-03 12:00:00 19.6 8 Sudoeste 17 Sudoeste 0 -- -- 46
2018-05-03 11:00:00 17.8 3 Sudeste 9 Sur 0 -- -- 54
2018-05-03 10:00:00 15.5 3 Sudoeste 6 Sudoeste 0 -- -- 59
2018-05-03 09:00:00 13.6 0 Calma 5 Este 0 -- -- 59
2018-05-03 08:00:00 11.4 2 Nordeste 7 Norte 0 -- -- 61
2018-05-03 07:00:00 12.1 0 Calma 7 Norte 0 -- -- 58
2018-05-03 06:00:00 11.1 0 Calma 4 Nordeste 0 -- -- 66
2018-05-03 05:00:00 11.3 0 Calma 4 Norte 0 -- -- 63
2018-05-03 04:00:00 11.5 2 Nordeste 5 Nordeste 0 -- -- 64
2018-05-03 03:00:00 12.4 0 Calma 11 Nordeste 0 -- -- 60
2018-05-03 02:00:00 12.8 2 Noroeste 8 Nordeste 0 -- -- 58
2018-05-03 01:00:00 12.9 3 Noroeste 8 Sudoeste 0 -- -- 60
2018-05-03 00:00:00 13.4 3 Norte 5 Norte 0 -- -- 57
2018-05-02 23:00:00 14.9 4 Noroeste 9 Oeste 0 -- -- 52
2018-05-02 22:00:00 16.7 5 Oeste 30 Oeste 0 -- -- 42
2018-05-02 21:00:00 18.2 15 Oeste 28 Oeste 0 -- -- 37
2018-05-02 20:00:00 21.3 10 Oeste 36 Oeste 0 -- -- 32
2018-05-02 19:00:00 19.8 17 Oeste 36 Oeste 0 -- -- 33
2018-05-02 18:00:00 20.2 20 Oeste 38 Oeste 0 -- -- 35
2018-05-02 17:00:00 22.1 18 Oeste 37 Oeste 0 -- -- 30
2018-05-02 16:00:00 21.9 19 Oeste 38 Sudoeste 0 -- -- 30
2018-05-02 15:00:00 23.5 19 Sudoeste 32 Sudoeste 0 -- -- 30
2018-05-02 14:00:00 21.9 10 Sur 23 Sur 0 -- -- 36
2018-05-02 13:00:00 19.7 7 Este 13 Este 0 -- -- 46
2018-05-02 12:00:00 17.6 3 Sudeste 9 Sudeste 0 -- -- 51
2018-05-02 11:00:00 16.7 4 Sudeste 8 Este 0 -- -- 54
2018-05-02 10:00:00 14.8 2 Sur 7 Sudoeste 0 -- -- 60
2018-05-02 09:00:00 12.8 3 Este 8 Nordeste 0 -- -- 58
2018-05-02 08:00:00 11 3 Norte 9 Nordeste 0 -- -- 60
2018-05-02 07:00:00 11.7 4 Noroeste 10 Noroeste 0 -- -- 56
2018-05-02 06:00:00 11.1 5 Noroeste 11 Este 0 -- -- 64
2018-05-02 05:00:00 11 4 Este 10 Nordeste 0 -- -- 63
2018-05-02 04:00:00 11.5 3 Noroeste 15 Oeste 0 -- -- 57
2018-05-02 03:00:00 12.9 7 Oeste 17 Oeste 0 -- -- 53
2018-05-02 02:00:00 13.1 11 Sudoeste 25 Oeste 0 -- -- 58
2018-05-02 01:00:00 13.7 13 Oeste 29 Oeste 0 -- -- 51
2018-05-02 00:00:00 13.3 3 Noroeste 22 Oeste 0 -- -- 48
2018-05-01 23:00:00 13.3 7 Oeste 23 Oeste 0 -- -- 51
2018-05-01 22:00:00 13.4 7 Oeste 28 Sudoeste 0 -- -- 52
2018-05-01 21:00:00 14.3 18 Sudoeste 28 Sudoeste 0 -- -- 55
2018-05-01 20:00:00 15.9 6 Nordeste 30 Oeste 0 -- -- 44
2018-05-01 19:00:00 15.4 6 Noroeste -- -- 0 -- -- 44
2018-05-01 18:00:00 20.5 13 Norte 44 Sudoeste 0 -- -- 32
2018-05-01 17:00:00 20.9 21 Oeste 46 Oeste 0.4 -- -- 31
2018-05-01 16:00:00 17.2 5 Norte 36 Noroeste 0 -- -- 48
2018-05-01 15:00:00 19.1 16 Oeste 28 Oeste 0 -- -- 38
2018-05-01 14:00:00 16.5 13 Oeste 35 Oeste 0 -- -- 48
2018-05-01 13:00:00 19.4 7 Oeste 40 Oeste 0 -- -- 30
2018-05-01 12:00:00 18.9 13 Oeste 34 Oeste 0 -- -- 34
2018-05-01 11:00:00 18.1 10 Oeste 23 Noroeste 0 -- -- 35
2018-05-01 10:00:00 14.3 4 Sudoeste 8 Sudoeste 0 -- -- 60
2018-05-01 09:00:00 12.5 2 Sur 5 Norte 0 -- -- 68
2018-05-01 08:00:00 10.5 3 Norte 7 Noroeste 0 -- -- 66
2018-05-01 07:00:00 10.6 2 Noroeste 7 Norte 0 -- -- 67
2018-05-01 06:00:00 10.6 4 Norte 7 Noroeste 0 -- -- 67
2018-05-01 05:00:00 10.8 2 Norte 7 Norte 0 -- -- 64
2018-05-01 04:00:00 11.5 3 Norte 9 Oeste 0 -- -- 60
2018-05-01 03:00:00 11.8 3 Oeste 11 Oeste 0 -- -- 59
2018-05-01 02:00:00 12.7 4 Sur 21 Oeste 0 -- -- 56
2018-05-01 01:00:00 14.1 12 Oeste 29 Noroeste 0 -- -- 51
2018-05-01 00:00:00 14.5 14 Oeste 31 Oeste 0 -- -- 50
2018-04-30 23:00:00 14.7 10 Oeste 25 Oeste 0 -- -- 50
2018-04-30 22:00:00 15.6 11 Oeste 25 Oeste 0 -- -- 48
2018-04-30 21:00:00 16.5 10 Oeste 42 Sudoeste 0 -- -- 45
2018-04-30 20:00:00 17.2 15 Oeste 37 Oeste 0 -- -- 43
2018-04-30 19:00:00 18.1 12 Oeste 31 Sudoeste 0 -- -- 38
2018-04-30 18:00:00 19.3 12 Oeste 33 Oeste 0 -- -- 31
2018-04-30 17:00:00 21.3 19 Oeste 38 Sudoeste 0 -- -- 28
2018-04-30 16:00:00 21.7 17 Oeste 35 Noroeste 0 -- -- 28
2018-04-30 15:00:00 21.7 17 Oeste 42 Oeste 0 -- -- 27
2018-04-30 14:00:00 20 17 Oeste 40 Oeste 0 -- -- 31
2018-04-30 13:00:00 18.9 19 Oeste 33 Oeste 0 -- -- 29
2018-04-30 12:00:00 18.2 15 Oeste 30 Oeste 0 -- -- 30
2018-04-30 11:00:00 16.2 16 Oeste 30 Oeste 0 -- -- 27
2018-04-30 10:00:00 15.2 12 Oeste 23 Oeste 0 -- -- 43
2018-04-30 09:00:00 12.1 9 Oeste 15 Oeste 0 -- -- 65
2018-04-30 08:00:00 10.1 2 Este 9 Oeste 0 -- -- 70
2018-04-30 07:00:00 10.1 0 Calma 7 Noroeste 0 -- -- 70
2018-04-30 06:00:00 10.4 2 Oeste 8 Oeste 0 -- -- 67
2018-04-30 05:00:00 11.6 7 Oeste 15 Oeste 0 -- -- 66
2018-04-30 04:00:00 12.1 9 Oeste 17 Oeste 0 -- -- 67
2018-04-30 03:00:00 11.4 7 Oeste 13 Oeste 0 -- -- 71
2018-04-30 02:00:00 12.1 8 Sudoeste 14 Sudoeste 0 -- -- 70
2018-04-30 01:00:00 12.3 7 Sudoeste 12 Oeste 0 -- -- 67
2018-04-30 00:00:00 13.2 7 Sudoeste 18 Sudoeste 0 -- -- 61
2018-04-29 23:00:00 13.8 9 Oeste 20 Oeste 0 -- -- 55
2018-04-29 22:00:00 14.6 6 Oeste 26 Oeste 0 -- -- 49
2018-04-29 21:00:00 16 11 Oeste 35 Oeste 0 -- -- 47
2018-04-29 20:00:00 18.6 20 Oeste 50 Oeste 0 -- -- 34
2018-04-29 19:00:00 19.3 23 Oeste 49 Oeste 0 -- -- 32
2018-04-29 18:00:00 20.3 24 Oeste 52 Oeste 0 -- -- 33
2018-04-29 17:00:00 20.4 26 Oeste 50 Oeste 0 -- -- 30
2018-04-29 16:00:00 19.7 28 Oeste 49 Sudoeste 0 -- -- 32
2018-04-29 15:00:00 19.9 26 Oeste 51 Oeste 0 -- -- 33
2018-04-29 14:00:00 18.4 10 Oeste 43 Oeste 0 -- -- 41
2018-04-29 13:00:00 17 14 Oeste 45 Sudoeste 0.2 -- -- 55
2018-04-29 12:00:00 17.2 24 Oeste 46 Sudoeste 0 -- -- 46
2018-04-29 11:00:00 16 19 Oeste 47 Noroeste 0 -- -- 48
2018-04-29 10:00:00 14.4 13 Oeste 33 Oeste 0 -- -- 58
2018-04-29 09:00:00 12.2 8 Oeste 22 Sudoeste 0 -- -- 70
2018-04-29 08:00:00 10.6 9 Sudoeste 24 Sudoeste 0 -- -- 77
2018-04-29 07:00:00 10.8 12 Oeste 28 Oeste 0 -- -- 76
2018-04-29 06:00:00 10.6 7 Sudoeste 26 Oeste 0.2 -- -- 79
2018-04-29 05:00:00 11.2 12 Oeste 29 Oeste 1.2 -- -- 76
2018-04-29 04:00:00 12 10 Oeste 31 Oeste 0.6 -- -- 74
2018-04-29 03:00:00 12.9 17 Sudoeste 27 Sudoeste 0 -- -- 75
2018-04-29 02:00:00 12.6 16 Sudoeste 27 Sudoeste 0 -- -- 74
2018-04-29 01:00:00 12.9 13 Oeste 41 Noroeste 0.2 -- -- 72
2018-04-29 00:00:00 14.1 11 Oeste 26 Oeste 0 -- -- 68
2018-04-28 23:00:00 14.8 13 Oeste 27 Sudoeste 0 -- -- 59
2018-04-28 22:00:00 15.1 16 Sudoeste 36 Oeste 0 -- -- 49
2018-04-28 21:00:00 16.5 17 Oeste 37 Sudoeste 0 -- -- 42
2018-04-28 20:00:00 19 23 Oeste 45 Oeste 0 -- -- 31
2018-04-28 19:00:00 20.7 19 Oeste 46 Oeste 0 -- -- 29
2018-04-28 18:00:00 21.2 25 Oeste 51 Oeste 0 -- -- 27
2018-04-28 17:00:00 21.6 29 Oeste 58 Oeste 0 -- -- 31
2018-04-28 16:00:00 22 27 Oeste 55 Oeste 0 -- -- 33
2018-04-28 15:00:00 21.4 26 Oeste 59 Sudoeste 0 -- -- 35
2018-04-28 14:00:00 20.5 28 Sudoeste 53 Oeste 0 -- -- 42
2018-04-28 13:00:00 19.9 21 Oeste 51 Oeste 0 -- -- 48
2018-04-28 12:00:00 18.9 17 Oeste 49 Oeste 0 -- -- 53
2018-04-28 11:00:00 18 28 Oeste 51 Oeste 0 -- -- 56
2018-04-28 10:00:00 16.7 23 Oeste 43 Oeste 0 -- -- 67
2018-04-28 09:00:00 15.3 19 Oeste 39 Sudoeste 0 -- -- 74
2018-04-28 08:00:00 14.7 17 Oeste 30 Oeste 0 -- -- 74
2018-04-28 07:00:00 15.1 14 Oeste 29 Oeste 0 -- -- 70
2018-04-28 06:00:00 15.6 15 Sudoeste 27 Oeste 0 -- -- 63
2018-04-28 05:00:00 16.3 7 Sudoeste 19 Sudoeste 0 -- -- 61
2018-04-28 04:00:00 16.6 12 Oeste 29 Sudoeste 0 -- -- 57
2018-04-28 03:00:00 14.7 2 Norte 8 Noroeste 0 -- -- 64
2018-04-28 02:00:00 15.5 -- -- -- -- 0 -- -- 62
2018-04-28 01:00:00 15.9 2 Nordeste 7 Oeste 0 -- -- 61
2018-04-28 00:00:00 17.3 2 Sudeste 10 Oeste 0 -- -- 63
2018-04-27 23:00:00 18.6 5 Oeste 18 Oeste 0 -- -- 56
2018-04-27 22:00:00 20.9 13 Oeste 27 Oeste 0 -- -- 47
2018-04-27 21:00:00 22.2 14 Oeste 39 Oeste 0 -- -- 53
2018-04-27 20:00:00 24.5 21 Sudoeste 41 Oeste 0 -- -- 49
2018-04-27 19:00:00 26.4 24 Oeste 42 Oeste 0 -- -- 42
2018-04-27 18:00:00 27.1 24 Oeste 48 Oeste 0 -- -- 42
2018-04-27 17:00:00 27.4 26 Oeste -- -- 0 -- -- 42
2018-04-27 16:00:00 22.2 11 Este 22 Nordeste 0 -- -- 59
2018-04-27 15:00:00 21.4 14 Este 23 Este 0 -- -- 63
2018-04-27 14:00:00 21.9 13 Este 21 Este 0 -- -- 57
2018-04-27 13:00:00 22.6 4 Sur 15 Sur 0 -- -- 55
2018-04-27 12:00:00 21.5 5 Sur 12 Este 0 -- -- 57
2018-04-27 11:00:00 19.8 3 Sur 8 Sur 0 -- -- 63
2018-04-27 10:00:00 17.1 3 Sudoeste 8 Sudoeste 0 -- -- 69
2018-04-27 09:00:00 15.7 0 Calma 5 Sudoeste 0 -- -- 76
2018-04-27 08:00:00 14.6 0 Calma 6 Nordeste 0 -- -- 73
2018-04-27 07:00:00 15.5 2 Sudoeste 6 Noroeste 0 -- -- 68
2018-04-27 06:00:00 16.3 3 Noroeste 8 Oeste 0 -- -- 63
2018-04-27 05:00:00 16.4 3 Noroeste 7 Noroeste 0 -- -- 62
2018-04-27 04:00:00 16 2 Norte 9 Norte 0 -- -- 65
2018-04-27 03:00:00 16 3 Norte 8 Oeste 0 -- -- 71
2018-04-27 02:00:00 16 3 Oeste 8 Oeste 0 -- -- 74
2018-04-27 01:00:00 16 4 Oeste 8 Sudoeste 0 -- -- 74
2018-04-27 00:00:00 17.2 3 Sur 9 Oeste 0 -- -- 72
2018-04-26 23:00:00 17.7 3 Sudoeste 7 Sudoeste 0 -- -- 73
2018-04-26 22:00:00 17.9 3 Sudoeste 6 Sur 0 -- -- 73
2018-04-26 21:00:00 17.9 3 Noroeste 8 Oeste 0 -- -- 75
2018-04-26 20:00:00 18.4 3 Nordeste 17 Sur 0 -- -- 75
2018-04-26 19:00:00 19.4 7 Oeste 25 Sudoeste 0 -- -- 70
2018-04-26 18:00:00 21 13 Este 21 Este 0 -- -- 69
2018-04-26 17:00:00 21 14 Este 23 Este 0 -- -- 68
2018-04-26 16:00:00 21.3 10 Este 22 Este 0 -- -- 67
2018-04-26 15:00:00 21.6 13 Este 19 Este 0 -- -- 65
2018-04-26 14:00:00 21.7 9 Este 13 Este 0 -- -- 63
2018-04-26 13:00:00 21.9 4 Sur 12 Sudoeste 0 -- -- 63
2018-04-26 12:00:00 20.9 6 Sudoeste 11 Sudoeste 0 -- -- 68
2018-04-26 11:00:00 18.3 4 Sudoeste 8 Sudeste 0 -- -- 78
2018-04-26 10:00:00 17.4 5 Este 10 Este 0 -- -- 83
2018-04-26 09:00:00 15.4 5 Nordeste 13 Nordeste 0 -- -- 85
2018-04-26 08:00:00 14.5 4 Nordeste 13 Este 0 -- -- 85
2018-04-26 07:00:00 14.8 3 Oeste 10 Sudoeste 0 -- -- 84
2018-04-26 06:00:00 15.2 5 Oeste 8 Oeste 0 -- -- 83
2018-04-26 05:00:00 15.8 5 Nordeste 11 Nordeste 0.4 -- -- 83
2018-04-26 04:00:00 15.3 2 Norte 9 Oeste 0 -- -- 82
2018-04-26 03:00:00 15.5 6 Sudoeste 11 Sudoeste 0 -- -- 83
2018-04-26 02:00:00 15.7 2 Oeste 5 Noroeste 0 -- -- 82
2018-04-26 01:00:00 16 3 Noroeste 6 Noroeste 0 -- -- 82
2018-04-26 00:00:00 16.5 3 Nordeste 9 Sudeste 0 -- -- 80
2018-04-25 23:00:00 17 4 Sur 14 Sudoeste 0 -- -- 76
2018-04-25 22:00:00 17.7 8 Este 13 Este 0 -- -- 72
2018-04-25 21:00:00 18.2 6 Nordeste 14 Este 0 -- -- 75
2018-04-25 20:00:00 19.6 4 Este 8 Este 0 -- -- 67
2018-04-25 19:00:00 20 3 Este 9 Este 0 -- -- 67
2018-04-25 18:00:00 20.2 7 Este 15 Este 0 -- -- 66
2018-04-25 17:00:00 20 9 Este 16 Este 0 -- -- 65
2018-04-25 16:00:00 21.8 9 Este 15 Este 0 -- -- 60
2018-04-25 15:00:00 20.2 10 Este 18 Este 0 -- -- 65
2018-04-25 14:00:00 19.5 11 Este 19 Este 0 -- -- 66
2018-04-25 13:00:00 20 5 Este 12 Este 0 -- -- 61
2018-04-25 12:00:00 18.5 2 Sur 6 Este 0 -- -- 71
2018-04-25 11:00:00 17.6 5 Este 15 Este 0 -- -- 74
2018-04-25 10:00:00 17.2 8 Este 22 Este 0 -- -- 76
2018-04-25 09:00:00 16.7 8 Nordeste 18 Sudoeste 0 -- -- 76
2018-04-25 08:00:00 16.4 6 Sur 15 Oeste 0 -- -- 74
2018-04-25 07:00:00 15.5 3 Sudoeste 6 Oeste 0 -- -- 78
2018-04-25 06:00:00 15.8 0 Calma 8 Este 0 -- -- 76
2018-04-25 05:00:00 16.9 4 Este 10 Noroeste 0 -- -- 71
2018-04-25 04:00:00 17.1 7 Oeste 15 Sur 0 -- -- 73
2018-04-25 03:00:00 17.4 3 Sudoeste 10 Noroeste 0 -- -- 68
2018-04-25 02:00:00 17.5 5 Este 10 Este 0 -- -- 71
2018-04-25 01:00:00 18 0 Calma 7 Nordeste 0 -- -- 67
2018-04-25 00:00:00 17.9 2 Norte 9 Nordeste 0 -- -- 67
2018-04-24 23:00:00 17.6 3 Este 7 Oeste 0 -- -- 68
2018-04-24 22:00:00 17.6 5 Sudoeste 16 Oeste 0 -- -- 68
2018-04-24 21:00:00 18.6 9 Sudoeste 15 Sudoeste 0 -- -- 67
2018-04-24 20:00:00 21.3 7 Sudoeste 14 Sudoeste 0 -- -- 56
2018-04-24 19:00:00 22.6 6 Sudoeste 12 Sudoeste 0 -- -- 55
2018-04-24 18:00:00 23.1 7 Sudoeste 14 Oeste 0 -- -- 52
2018-04-24 17:00:00 23.8 9 Sudoeste 15 Sudoeste 0 -- -- 52
2018-04-24 16:00:00 23.4 7 Sudoeste 14 Sudoeste 0 -- -- 51
2018-04-24 15:00:00 23.3 8 Sudoeste 13 Sudoeste 0 -- -- 51
2018-04-24 14:00:00 22.3 8 Sudoeste 18 Sudoeste 0 -- -- 54
2018-04-24 13:00:00 22.2 10 Sudoeste 17 Sudoeste 0 -- -- 56
2018-04-24 12:00:00 21.5 9 Sudoeste 15 Sudoeste 0 -- -- 58
2018-04-24 11:00:00 20.4 9 Sudoeste 17 Sudoeste 0 -- -- 61
2018-04-24 10:00:00 19.6 8 Sudoeste 17 Oeste 0 -- -- 61
2018-04-24 09:00:00 18.7 10 Oeste 18 Oeste 0 -- -- 58
2018-04-24 08:00:00 18.6 9 Oeste 19 Oeste 0 -- -- 56
2018-04-24 07:00:00 18.8 7 Oeste 19 Oeste 0 -- -- 53
2018-04-24 06:00:00 18.8 8 Oeste 18 Oeste 0 -- -- 57
2018-04-24 05:00:00 18.4 7 Oeste 17 Noroeste 0 -- -- 61
2018-04-24 04:00:00 18.1 7 Oeste 17 Oeste 0 -- -- 63
2018-04-24 03:00:00 17.8 7 Oeste 19 Noroeste 0 -- -- 65
2018-04-24 02:00:00 17.6 8 Oeste 23 Oeste 0 -- -- 66
2018-04-24 01:00:00 17.8 11 Oeste 21 Oeste 0 -- -- 64
2018-04-24 00:00:00 18 9 Oeste 19 Oeste 0 -- -- 63
2018-04-23 23:00:00 18 7 Oeste 15 Oeste 0 -- -- 63
2018-04-23 22:00:00 18 6 Oeste 13 Oeste 0 -- -- 64
2018-04-23 21:00:00 18.3 7 Sudoeste 13 Sudoeste 0 -- -- 68
2018-04-23 20:00:00 19.3 9 Sudoeste 17 Sudoeste 0 -- -- 66
2018-04-23 19:00:00 20.5 10 Sudoeste 17 Sudoeste 0 -- -- 63
2018-04-23 18:00:00 22 10 Sudoeste 16 Sudoeste 0 -- -- 58
2018-04-23 17:00:00 22.9 9 Sudoeste 14 Sudoeste 0 -- -- 56
2018-04-23 16:00:00 22.3 5 Sudoeste 10 Sur 0 -- -- 60
2018-04-23 15:00:00 21.2 5 Sudeste 11 Este 0 -- -- 65
2018-04-23 14:00:00 21.3 9 Este 14 Este 0 -- -- 64
2018-04-23 13:00:00 21.3 6 Este 12 Este 0 -- -- 64
2018-04-23 12:00:00 20.2 5 Sudeste 9 Sudeste 0 -- -- 69
2018-04-23 11:00:00 18.4 3 Este 6 Sur 0 -- -- 73
2018-04-23 10:00:00 17.3 0 Calma 6 Sur 0 -- -- 79
2018-04-23 09:00:00 16.1 4 Sudoeste 8 Sudoeste 0 -- -- 81
2018-04-23 08:00:00 15.5 3 Sudoeste 9 Oeste 0 -- -- 80
2018-04-23 07:00:00 15 2 Noroeste 5 Sur 0 -- -- 81
2018-04-23 06:00:00 15.4 3 Este 10 Oeste 0 -- -- 79
2018-04-23 05:00:00 15.3 6 Oeste 11 Oeste 0 -- -- 80
2018-04-23 04:00:00 15.7 3 Oeste 8 Oeste 0 -- -- 79
2018-04-23 03:00:00 16.1 6 Nordeste 11 Nordeste 0 -- -- 79
2018-04-23 02:00:00 16.4 5 Nordeste 12 Oeste 0 -- -- 79
2018-04-23 01:00:00 16.9 9 Oeste 20 Oeste 0.2 -- -- 75
2018-04-23 00:00:00 16.9 9 Oeste 16 Sudoeste 0 -- -- 74
2018-04-22 23:00:00 17.1 5 Oeste 10 Sudoeste 0 -- -- 72
2018-04-22 22:00:00 17.5 5 Oeste 13 Oeste 0 -- -- 70
2018-04-22 21:00:00 18.2 6 Sudoeste 15 Sudoeste 0.2 -- -- 69
2018-04-22 20:00:00 20 10 Sudoeste 19 Sudoeste 0 -- -- 63
2018-04-22 19:00:00 21.6 9 Sudoeste 15 Sur 0 -- -- 58
2018-04-22 18:00:00 21.6 6 Sudoeste 13 Sur 0 -- -- 57
2018-04-22 17:00:00 21.8 6 Sudoeste 10 Sudoeste 0 -- -- 58
2018-04-22 16:00:00 21.9 5 Sur 10 Sudeste 0 -- -- 59
2018-04-22 15:00:00 21.6 4 Sudeste 15 Sudeste 0 -- -- 57
2018-04-22 14:00:00 21 10 Sudeste 18 Sudeste 0 -- -- 60
2018-04-22 13:00:00 20.4 10 Este 24 Este 0 -- -- 62
2018-04-22 12:00:00 18.9 11 Este 23 Este 0 -- -- 64
2018-04-22 11:00:00 18.4 12 Este 25 Este 0 -- -- 67
2018-04-22 10:00:00 17.3 10 Este 15 Sudeste 0 -- -- 74
2018-04-22 09:00:00 15.7 9 Este 17 Nordeste 0 -- -- 79
2018-04-22 08:00:00 14.2 2 Noroeste 5 Nordeste 0 -- -- 81
2018-04-22 07:00:00 14.5 2 Norte 6 Oeste 0 -- -- 80
2018-04-22 06:00:00 15.5 0 Calma 10 Oeste 0 -- -- 79
2018-04-22 05:00:00 15.7 5 Oeste 13 Oeste 0 -- -- 79
2018-04-22 04:00:00 15.8 8 Oeste 14 Noroeste 0 -- -- 79
2018-04-22 03:00:00 15.6 6 Oeste 11 Oeste 0 -- -- 79
2018-04-22 02:00:00 16 2 Norte 13 Nordeste 0 -- -- 76
2018-04-22 01:00:00 16.3 6 Nordeste 13 Nordeste 0 -- -- 75
2018-04-22 00:00:00 16.2 8 Nordeste 24 Nordeste 0 -- -- 77